Time,TemperatureF,DewpointF,PressureIn,WindDirection,WindDirectionDegrees,WindSpeedMPH,WindSpeedGustMPH,Humidity,HourlyPrecipIn,Conditions,Clouds,dailyrainin,SoftwareType,DateUTC
2013-01-14 00:05:00,32.2,27.6,30.09,West,270,0.0,0.0,83,0.00,,,0.00,pywws,2013-01-14 00:05:00,
2013-01-14 00:10:00,32.4,28.1,30.09,NW,315,0.0,0.0,84,0.00,,,0.00,pywws,2013-01-14 00:10:00,
2013-01-14 00:15:00,32.4,27.8,30.10,SW,225,0.0,0.0,83,0.00,,,0.00,pywws,2013-01-14 00:15:00,
2013-01-14 00:20:00,32.5,28.0,30.09,NW,315,0.0,0.0,83,0.00,,,0.00,pywws,2013-01-14 00:20:00,
2013-01-14 00:25:00,32.5,28.0,30.09,West,270,0.0,0.0,83,0.00,,,0.00,pywws,2013-01-14 00:25:00,
2013-01-14 00:28:00,32.5,28.0,30.09,West,270,0.0,0.0,83,0.00,,,0.00,pywws,2013-01-14 00:28:00,
2013-01-14 00:30:00,32.5,28.0,30.09,West,270,0.0,0.0,83,0.00,,,0.00,pywws,2013-01-14 00:30:00,
2013-01-14 00:31:00,32.5,28.0,30.09,NW,315,0.0,0.0,83,0.00,,,0.00,pywws,2013-01-14 00:31:00,
2013-01-14 00:35:00,32.5,28.0,30.09,West,270,0.0,0.0,83,0.00,,,0.00,pywws,2013-01-14 00:35:00,
2013-01-14 00:37:00,32.5,28.0,30.09,NW,315,0.0,0.0,83,0.00,,,0.00,pywws,2013-01-14 00:37:00,
2013-01-14 00:40:00,32.5,28.0,30.09,North,0,0.0,0.0,83,0.00,,,0.00,pywws,2013-01-14 00:40:00,
2013-01-14 00:43:00,32.5,28.0,30.09,South,180,0.0,0.0,83,0.00,,,0.00,pywws,2013-01-14 00:43:00,
2013-01-14 00:48:00,32.5,28.0,30.09,North,0,0.0,0.0,83,0.00,,,0.00,pywws,2013-01-14 00:48:00,
2013-01-14 00:54:00,32.4,27.8,30.09,SE,135,0.0,0.0,83,0.00,,,0.00,pywws,2013-01-14 00:54:00,
2013-01-14 00:59:00,32.0,27.7,30.08,North,0,0.0,0.0,84,0.00,,,0.00,pywws,2013-01-14 00:59:00,
2013-01-14 01:05:00,32.0,27.7,30.08,North,0,0.0,0.0,84,0.00,,,0.00,pywws,2013-01-14 01:05:00,
2013-01-14 01:10:00,32.0,27.7,30.08,North,0,0.0,0.0,84,0.00,,,0.00,pywws,2013-01-14 01:10:00,
2013-01-14 01:16:00,32.2,28.2,30.08,North,0,0.0,0.0,85,0.00,,,0.00,pywws,2013-01-14 01:16:00,
2013-01-14 01:21:00,32.0,28.0,30.08,North,0,0.0,0.0,85,0.00,,,0.00,pywws,2013-01-14 01:21:00,
2013-01-14 01:26:00,32.0,28.0,30.08,North,0,0.0,0.0,85,0.00,,,0.00,pywws,2013-01-14 01:26:00,
2013-01-14 01:31:00,32.0,28.0,30.08,North,0,0.0,0.0,85,0.00,,,0.00,pywws,2013-01-14 01:31:00,
2013-01-14 01:36:00,32.0,28.0,30.07,NW,315,0.0,0.0,85,0.00,,,0.00,pywws,2013-01-14 01:36:00,
2013-01-14 01:42:00,32.2,27.9,30.07,NW,315,0.0,0.0,84,0.00,,,0.00,pywws,2013-01-14 01:42:00,
2013-01-14 01:47:00,32.0,27.7,30.07,NW,315,0.0,0.0,84,0.00,,,0.00,pywws,2013-01-14 01:47:00,
2013-01-14 01:52:00,32.0,27.7,30.07,NW,315,0.0,0.0,84,0.00,,,0.00,pywws,2013-01-14 01:52:00,
2013-01-14 01:57:00,32.0,28.0,30.07,NW,315,0.0,0.0,85,0.00,,,0.00,pywws,2013-01-14 01:57:00,
2013-01-14 01:58:00,32.0,28.0,30.07,NW,315,0.0,0.0,85,0.00,,,0.00,pywws,2013-01-14 01:58:00,
2013-01-14 02:05:00,32.0,28.0,30.07,NW,315,0.0,0.0,85,0.00,,,0.00,pywws,2013-01-14 02:05:00,
2013-01-14 02:10:00,31.8,27.8,30.07,NW,315,0.0,0.0,85,0.00,,,0.00,pywws,2013-01-14 02:10:00,
2013-01-14 02:15:00,31.8,28.1,30.07,East,90,0.0,0.0,86,0.00,,,0.00,pywws,2013-01-14 02:15:00,
2013-01-14 02:20:00,32.0,28.3,30.07,East,90,0.0,0.0,86,0.00,,,0.00,pywws,2013-01-14 02:20:00,
2013-01-14 02:26:00,32.0,28.6,30.07,SE,135,0.0,0.0,87,0.00,,,0.00,pywws,2013-01-14 02:26:00,
2013-01-14 02:31:00,32.0,28.6,30.06,East,90,0.0,0.0,87,0.00,,,0.00,pywws,2013-01-14 02:31:00,
2013-01-14 02:36:00,31.8,28.4,30.06,SW,225,0.0,0.0,87,0.00,,,0.00,pywws,2013-01-14 02:36:00,
2013-01-14 02:41:00,31.8,28.4,30.06,NE,45,0.0,0.0,87,0.00,,,0.00,pywws,2013-01-14 02:41:00,
2013-01-14 02:46:00,31.8,28.4,30.06,NE,45,0.0,0.0,87,0.00,,,0.00,pywws,2013-01-14 02:46:00,
2013-01-14 02:51:00,31.8,28.7,30.06,SE,135,0.0,0.0,88,0.00,,,0.00,pywws,2013-01-14 02:51:00,
2013-01-14 02:56:00,31.8,28.7,30.06,NE,45,0.0,0.0,88,0.00,,,0.00,pywws,2013-01-14 02:56:00,
2013-01-14 03:05:00,31.6,28.5,30.06,NNE,22,0.0,0.0,88,0.00,,,0.00,pywws,2013-01-14 03:05:00,
2013-01-14 03:10:00,31.6,28.5,30.06,East,90,0.0,0.0,88,0.00,,,0.00,pywws,2013-01-14 03:10:00,
2013-01-14 03:15:00,32.0,28.9,30.06,NE,45,0.0,0.0,88,0.00,,,0.00,pywws,2013-01-14 03:15:00,
2013-01-14 03:21:00,32.0,29.1,30.06,South,180,0.0,0.0,89,0.00,,,0.00,pywws,2013-01-14 03:21:00,
2013-01-14 03:26:00,32.0,29.1,30.06,South,180,0.0,0.0,89,0.00,,,0.00,pywws,2013-01-14 03:26:00,
2013-01-14 03:31:00,32.0,29.1,30.05,NE,45,0.0,0.0,89,0.00,,,0.00,pywws,2013-01-14 03:31:00,
2013-01-14 03:36:00,32.0,28.9,30.05,North,0,0.0,0.0,88,0.00,,,0.00,pywws,2013-01-14 03:36:00,
2013-01-14 03:41:00,32.0,29.1,30.05,East,90,0.0,0.0,89,0.00,,,0.00,pywws,2013-01-14 03:41:00,
2013-01-14 03:46:00,32.0,29.1,30.05,SE,135,0.0,0.0,89,0.00,,,0.00,pywws,2013-01-14 03:46:00,
2013-01-14 03:51:00,32.2,29.3,30.05,SE,135,0.0,0.0,89,0.00,,,0.00,pywws,2013-01-14 03:51:00,
2013-01-14 03:56:00,32.2,29.3,30.05,SW,225,0.0,0.0,89,0.00,,,0.00,pywws,2013-01-14 03:56:00,
2013-01-14 04:05:00,32.2,29.3,30.04,North,0,0.0,0.0,89,0.00,,,0.00,pywws,2013-01-14 04:05:00,
2013-01-14 04:10:00,32.2,29.3,30.05,NE,45,0.0,0.0,89,0.00,,,0.00,pywws,2013-01-14 04:10:00,
2013-01-14 04:15:00,32.2,29.3,30.04,SE,135,0.0,0.0,89,0.00,,,0.00,pywws,2013-01-14 04:15:00,
2013-01-14 04:20:00,32.2,29.3,30.04,SE,135,0.0,0.0,89,0.00,,,0.00,pywws,2013-01-14 04:20:00,
2013-01-14 04:26:00,32.0,29.4,30.04,SE,135,0.0,0.0,90,0.00,,,0.00,pywws,2013-01-14 04:26:00,
2013-01-14 04:31:00,32.2,29.6,30.03,NW,315,0.0,0.0,90,0.00,,,0.00,pywws,2013-01-14 04:31:00,
2013-01-14 04:36:00,32.2,29.6,30.03,NE,45,0.0,0.0,90,0.00,,,0.00,pywws,2013-01-14 04:36:00,
2013-01-14 04:41:00,32.2,29.6,30.03,NW,315,0.0,0.0,90,0.00,,,0.00,pywws,2013-01-14 04:41:00,
2013-01-14 04:46:00,32.0,29.7,30.03,North,0,0.0,0.0,91,0.00,,,0.00,pywws,2013-01-14 04:46:00,
2013-01-14 04:51:00,32.0,29.7,30.02,East,90,0.0,0.0,91,0.00,,,0.00,pywws,2013-01-14 04:51:00,
2013-01-14 04:55:00,32.0,29.7,30.02,North,0,0.0,0.0,91,0.00,,,0.00,pywws,2013-01-14 04:55:00,
2013-01-14 04:56:00,32.0,29.7,30.02,NW,315,0.0,0.0,91,0.00,,,0.00,pywws,2013-01-14 04:56:00,
2013-01-14 04:58:00,32.0,29.7,30.02,East,90,0.0,0.0,91,0.00,,,0.00,pywws,2013-01-14 04:58:00,
2013-01-14 05:01:00,32.0,29.7,30.02,North,0,0.0,0.0,91,0.00,,,0.00,pywws,2013-01-14 05:01:00,
2013-01-14 05:10:00,31.8,29.5,30.02,North,0,0.0,0.0,91,0.00,,,0.00,pywws,2013-01-14 05:10:00,
2013-01-14 05:16:00,31.8,29.8,30.01,East,90,0.0,0.0,92,0.00,,,0.00,pywws,2013-01-14 05:16:00,
2013-01-14 05:21:00,31.8,30.0,30.01,South,180,0.0,0.0,93,0.00,,,0.00,pywws,2013-01-14 05:21:00,
2013-01-14 05:26:00,31.8,30.0,30.01,South,180,0.0,0.0,93,0.00,,,0.00,pywws,2013-01-14 05:26:00,
2013-01-14 05:31:00,31.6,29.9,30.01,East,90,0.0,0.0,93,0.00,,,0.00,pywws,2013-01-14 05:31:00,
2013-01-14 05:36:00,31.6,29.9,30.01,East,90,0.0,0.0,93,0.00,,,0.00,pywws,2013-01-14 05:36:00,
2013-01-14 05:42:00,31.6,29.9,30.01,SSE,158,0.0,0.0,93,0.00,,,0.00,pywws,2013-01-14 05:42:00,
2013-01-14 05:47:00,31.5,29.7,30.00,SE,135,0.0,0.0,93,0.00,,,0.00,pywws,2013-01-14 05:47:00,
2013-01-14 05:52:00,31.5,29.7,30.01,NE,45,0.0,0.0,93,0.00,,,0.00,pywws,2013-01-14 05:52:00,
2013-01-14 05:57:00,31.5,29.7,30.00,SE,135,0.0,0.0,93,0.00,,,0.00,pywws,2013-01-14 05:57:00,
2013-01-14 06:05:00,31.5,29.7,30.00,SE,135,0.0,0.0,93,0.00,,,0.00,pywws,2013-01-14 06:05:00,
2013-01-14 06:10:00,31.5,29.7,30.00,SE,135,0.0,0.0,93,0.00,,,0.00,pywws,2013-01-14 06:10:00,
2013-01-14 06:15:00,31.5,29.9,30.00,East,90,0.0,0.0,94,0.00,,,0.00,pywws,2013-01-14 06:15:00,
2013-01-14 06:20:00,31.5,29.9,30.00,East,90,0.0,0.0,94,0.00,,,0.00,pywws,2013-01-14 06:20:00,
2013-01-14 06:25:00,31.5,29.9,29.99,SE,135,0.0,0.0,94,0.00,,,0.00,pywws,2013-01-14 06:25:00,
2013-01-14 06:30:00,31.5,29.9,29.99,East,90,0.0,0.0,94,0.00,,,0.00,pywws,2013-01-14 06:30:00,
2013-01-14 06:35:00,31.5,29.9,29.99,NE,45,0.0,0.0,94,0.00,,,0.00,pywws,2013-01-14 06:35:00,
2013-01-14 06:41:00,31.5,29.7,29.98,East,90,0.0,0.0,93,0.00,,,0.00,pywws,2013-01-14 06:41:00,
2013-01-14 06:46:00,31.5,29.7,29.98,SE,135,0.0,0.0,93,0.00,,,0.00,pywws,2013-01-14 06:46:00,
2013-01-14 06:51:00,31.5,29.4,29.98,South,180,0.0,0.0,92,0.00,,,0.00,pywws,2013-01-14 06:51:00,
2013-01-14 06:56:00,31.6,29.6,29.98,SSE,158,0.0,0.0,92,0.00,,,0.00,pywws,2013-01-14 06:56:00,
2013-01-14 06:58:00,31.5,29.4,29.98,SE,135,0.0,0.0,92,0.00,,,0.00,pywws,2013-01-14 06:58:00,
2013-01-14 07:05:00,31.6,29.6,29.98,SE,135,0.0,0.0,92,0.00,,,0.00,pywws,2013-01-14 07:05:00,
2013-01-14 07:10:00,31.6,29.6,29.98,SE,135,0.0,0.0,92,0.00,,,0.00,pywws,2013-01-14 07:10:00,
2013-01-14 07:15:00,31.6,29.6,29.98,East,90,0.0,0.0,92,0.00,,,0.00,pywws,2013-01-14 07:15:00,
2013-01-14 07:20:00,31.6,29.6,29.98,South,180,0.0,0.0,92,0.00,,,0.00,pywws,2013-01-14 07:20:00,
2013-01-14 07:25:00,31.6,29.6,29.98,East,90,0.0,0.0,92,0.00,,,0.00,pywws,2013-01-14 07:25:00,
2013-01-14 07:30:00,31.6,29.6,29.98,NE,45,0.0,0.0,92,0.00,,,0.00,pywws,2013-01-14 07:30:00,
2013-01-14 07:35:00,31.6,29.6,29.97,SE,135,0.0,0.0,92,0.00,,,0.00,pywws,2013-01-14 07:35:00,
2013-01-14 07:40:00,31.6,29.6,29.97,NE,45,0.0,0.0,92,0.00,,,0.00,pywws,2013-01-14 07:40:00,
2013-01-14 07:46:00,31.6,29.6,29.97,SE,135,0.0,0.0,92,0.00,,,0.00,pywws,2013-01-14 07:46:00,
2013-01-14 07:51:00,31.6,29.6,29.97,SW,225,0.0,0.0,92,0.00,,,0.00,pywws,2013-01-14 07:51:00,
2013-01-14 07:56:00,31.6,29.3,29.97,SE,135,0.0,0.0,91,0.00,,,0.00,pywws,2013-01-14 07:56:00,
2013-01-14 08:05:00,31.6,29.3,29.97,SE,135,0.0,0.0,91,0.00,,,0.00,pywws,2013-01-14 08:05:00,
2013-01-14 08:10:00,31.6,29.3,29.96,SE,135,0.0,0.0,91,0.00,,,0.00,pywws,2013-01-14 08:10:00,
2013-01-14 08:15:00,31.8,29.5,29.97,NE,45,0.0,0.0,91,0.00,,,0.00,pywws,2013-01-14 08:15:00,
2013-01-14 08:20:00,31.6,29.6,29.97,NE,45,0.0,0.0,92,0.00,,,0.00,pywws,2013-01-14 08:20:00,
2013-01-14 08:25:00,31.8,29.8,29.96,NE,45,0.0,0.0,92,0.00,,,0.00,pywws,2013-01-14 08:25:00,
2013-01-14 08:31:00,31.8,29.8,29.97,East,90,0.0,0.0,92,0.00,,,0.00,pywws,2013-01-14 08:31:00,
2013-01-14 08:36:00,32.0,29.9,29.96,SE,135,0.0,0.0,92,0.00,,,0.00,pywws,2013-01-14 08:36:00,
2013-01-14 08:41:00,32.0,29.9,29.96,SSE,158,0.0,0.0,92,0.00,,,0.00,pywws,2013-01-14 08:41:00,
2013-01-14 08:46:00,32.2,29.9,29.96,SE,135,0.0,0.0,91,0.00,,,0.00,pywws,2013-01-14 08:46:00,
2013-01-14 08:51:00,32.2,29.9,29.95,South,180,0.0,0.0,91,0.00,,,0.00,pywws,2013-01-14 08:51:00,
2013-01-14 08:56:00,32.4,30.0,29.95,SE,135,0.0,0.0,91,0.00,,,0.00,pywws,2013-01-14 08:56:00,
2013-01-14 09:05:00,32.5,30.2,29.94,East,90,0.0,0.0,91,0.00,,,0.00,pywws,2013-01-14 09:05:00,
2013-01-14 09:10:00,34.2,31.5,29.94,South,180,0.0,0.0,90,0.00,,,0.00,pywws,2013-01-14 09:10:00,
2013-01-14 09:15:00,33.3,30.7,29.94,North,0,0.0,0.0,90,0.00,,,0.00,pywws,2013-01-14 09:15:00,
2013-01-14 09:20:00,33.3,30.4,29.93,South,180,0.0,0.0,89,0.00,,,0.00,pywws,2013-01-14 09:20:00,
2013-01-14 09:25:00,34.2,31.3,29.93,SSW,202,0.0,0.0,89,0.00,,,0.00,pywws,2013-01-14 09:25:00,
2013-01-14 09:30:00,34.3,31.4,29.93,South,180,0.0,0.0,89,0.00,,,0.00,pywws,2013-01-14 09:30:00,
2013-01-14 09:36:00,33.3,30.4,29.93,North,0,0.0,0.0,89,0.00,,,0.00,pywws,2013-01-14 09:36:00,
2013-01-14 09:41:00,32.4,29.8,29.93,NE,45,0.0,0.0,90,0.00,,,0.00,pywws,2013-01-14 09:41:00,
2013-01-14 09:46:00,32.7,30.1,29.93,South,180,0.0,0.0,90,0.00,,,0.00,pywws,2013-01-14 09:46:00,
2013-01-14 09:51:00,34.5,31.9,29.92,South,180,0.0,0.0,90,0.00,,,0.00,pywws,2013-01-14 09:51:00,
2013-01-14 09:56:00,34.5,31.6,29.92,SW,225,0.7,4.5,89,0.00,,,0.00,pywws,2013-01-14 09:56:00,
2013-01-14 09:58:00,32.5,29.7,29.92,SE,135,0.0,0.7,89,0.00,,,0.00,pywws,2013-01-14 09:58:00,
2013-01-14 10:05:00,32.5,29.7,29.92,SE,135,0.0,0.7,89,0.00,,,0.00,pywws,2013-01-14 10:05:00,
2013-01-14 10:10:00,32.9,30.0,29.91,West,270,0.0,0.0,89,0.00,,,0.00,pywws,2013-01-14 10:10:00,
2013-01-14 10:15:00,33.3,30.4,29.91,South,180,0.0,0.0,89,0.00,,,0.00,pywws,2013-01-14 10:15:00,
2013-01-14 10:20:00,33.4,30.3,29.90,SW,225,0.0,0.7,88,0.00,,,0.00,pywws,2013-01-14 10:20:00,
2013-01-14 10:25:00,33.4,30.3,29.90,SE,135,0.0,0.0,88,0.00,,,0.00,pywws,2013-01-14 10:25:00,
2013-01-14 10:30:00,33.6,30.5,29.90,SSE,158,0.0,0.0,88,0.00,,,0.00,pywws,2013-01-14 10:30:00,
2013-01-14 10:36:00,33.6,30.5,29.90,SE,135,0.0,0.0,88,0.00,,,0.00,pywws,2013-01-14 10:36:00,
2013-01-14 10:41:00,33.6,30.5,29.90,North,0,0.0,2.2,88,0.00,,,0.00,pywws,2013-01-14 10:41:00,
2013-01-14 10:46:00,33.6,30.5,29.89,NW,315,0.0,0.0,88,0.00,,,0.00,pywws,2013-01-14 10:46:00,
2013-01-14 10:51:00,33.8,30.9,29.90,SE,135,0.0,1.6,89,0.00,,,0.00,pywws,2013-01-14 10:51:00,
2013-01-14 10:56:00,34.0,30.8,29.89,East,90,0.7,6.9,88,0.00,,,0.00,pywws,2013-01-14 10:56:00,
2013-01-14 10:58:00,34.0,30.8,29.89,South,180,0.0,0.0,88,0.00,,,0.00,pywws,2013-01-14 10:58:00,
2013-01-14 11:01:00,34.2,31.0,29.88,NW,315,0.0,0.0,88,0.00,,,0.00,pywws,2013-01-14 11:01:00,
2013-01-14 11:05:00,34.0,30.8,29.89,South,180,0.0,0.0,88,0.00,,,0.00,pywws,2013-01-14 11:05:00,
2013-01-14 11:10:00,34.2,31.0,29.88,NW,315,0.0,0.0,88,0.00,,,0.00,pywws,2013-01-14 11:10:00,
2013-01-14 11:16:00,34.5,31.3,29.87,SE,135,0.0,0.0,88,0.00,,,0.00,pywws,2013-01-14 11:16:00,
2013-01-14 11:21:00,34.7,31.5,29.87,ENE,68,0.0,0.7,88,0.00,,,0.00,pywws,2013-01-14 11:21:00,
2013-01-14 11:26:00,34.9,31.7,29.86,South,180,0.7,3.8,88,0.00,,,0.00,pywws,2013-01-14 11:26:00,
2013-01-14 11:31:00,34.9,31.7,29.86,SE,135,0.0,0.0,88,0.00,,,0.00,pywws,2013-01-14 11:31:00,
2013-01-14 11:36:00,35.1,31.9,29.85,SE,135,0.0,0.0,88,0.00,,,0.00,pywws,2013-01-14 11:36:00,
2013-01-14 11:41:00,35.1,31.9,29.85,SE,135,0.0,0.0,88,0.00,,,0.00,pywws,2013-01-14 11:41:00,
2013-01-14 11:46:00,35.2,32.3,29.85,SW,225,0.7,3.8,89,0.00,,,0.00,pywws,2013-01-14 11:46:00,
2013-01-14 11:51:00,35.2,32.3,29.84,North,0,0.0,0.0,89,0.00,,,0.00,pywws,2013-01-14 11:51:00,
2013-01-14 11:56:00,35.2,32.6,29.84,SE,135,0.0,0.0,90,0.00,,,0.00,pywws,2013-01-14 11:56:00,
2013-01-14 12:05:00,35.2,32.6,29.83,South,180,0.0,0.0,90,0.00,,,0.00,pywws,2013-01-14 12:05:00,
2013-01-14 12:10:00,35.2,32.9,29.83,ESE,112,0.0,0.0,91,0.00,,,0.00,pywws,2013-01-14 12:10:00,
2013-01-14 12:15:00,35.4,33.1,29.83,SE,135,0.0,3.1,91,0.00,,,0.00,pywws,2013-01-14 12:15:00,
2013-01-14 12:20:00,35.1,33.0,29.82,East,90,0.0,0.7,92,0.00,,,0.00,pywws,2013-01-14 12:20:00,
2013-01-14 12:26:00,35.2,33.2,29.82,South,180,0.0,0.0,92,0.00,,,0.00,pywws,2013-01-14 12:26:00,
2013-01-14 12:31:00,35.2,33.2,29.81,South,180,0.0,0.0,92,0.00,,,0.00,pywws,2013-01-14 12:31:00,
2013-01-14 12:36:00,35.2,33.4,29.81,SE,135,0.0,0.0,93,0.00,,,0.00,pywws,2013-01-14 12:36:00,
2013-01-14 12:41:00,35.4,33.6,29.80,ESE,112,0.0,0.0,93,0.00,,,0.00,pywws,2013-01-14 12:41:00,
2013-01-14 12:46:00,35.4,33.6,29.80,South,180,0.0,0.0,93,0.01,,,0.01,pywws,2013-01-14 12:46:00,
2013-01-14 12:51:00,35.6,33.8,29.79,SE,135,0.0,2.2,93,0.01,,,0.01,pywws,2013-01-14 12:51:00,
2013-01-14 12:56:00,35.6,34.0,29.79,SE,135,0.0,0.0,94,0.01,,,0.01,pywws,2013-01-14 12:56:00,
2013-01-14 13:01:00,35.6,34.0,29.79,SE,135,0.0,0.0,94,0.01,,,0.01,pywws,2013-01-14 13:01:00,
2013-01-14 13:04:00,35.6,34.0,29.78,SE,135,0.0,0.0,94,0.01,,,0.01,pywws,2013-01-14 13:04:00,
2013-01-14 13:05:00,35.6,34.0,29.78,SE,135,0.0,0.0,94,0.01,,,0.01,pywws,2013-01-14 13:05:00,
2013-01-14 13:07:00,35.6,34.0,29.77,SE,135,0.0,0.0,94,0.01,,,0.01,pywws,2013-01-14 13:07:00,
2013-01-14 13:10:00,35.6,34.0,29.79,SE,135,0.0,0.0,94,0.01,,,0.01,pywws,2013-01-14 13:10:00,
2013-01-14 13:16:00,35.6,34.0,29.77,SE,135,0.0,0.0,94,0.01,,,0.01,pywws,2013-01-14 13:16:00,
2013-01-14 13:22:00,36.1,34.6,29.77,South,180,0.0,0.0,94,0.02,,,0.02,pywws,2013-01-14 13:22:00,
2013-01-14 13:27:00,36.1,34.8,29.76,SW,225,0.0,1.6,95,0.02,,,0.02,pywws,2013-01-14 13:27:00,
2013-01-14 13:32:00,36.1,34.8,29.76,NNW,338,0.0,2.2,95,0.02,,,0.02,pywws,2013-01-14 13:32:00,
2013-01-14 13:37:00,36.1,34.8,29.76,ENE,68,0.0,0.0,95,0.04,,,0.04,pywws,2013-01-14 13:37:00,
2013-01-14 13:42:00,36.3,35.0,29.76,NNE,22,0.0,0.7,95,0.04,,,0.04,pywws,2013-01-14 13:42:00,
2013-01-14 13:47:00,36.1,34.8,29.76,East,90,0.0,0.0,95,0.04,,,0.04,pywws,2013-01-14 13:47:00,
2013-01-14 13:52:00,36.3,35.0,29.75,NE,45,0.0,0.0,95,0.04,,,0.05,pywws,2013-01-14 13:52:00,
2013-01-14 13:57:00,36.3,35.0,29.75,East,90,0.0,0.0,95,0.04,,,0.05,pywws,2013-01-14 13:57:00,
2013-01-14 14:05:00,36.5,35.2,29.75,West,270,0.0,0.7,95,0.04,,,0.05,pywws,2013-01-14 14:05:00,
2013-01-14 14:10:00,36.5,35.2,29.75,West,270,0.0,0.7,95,0.04,,,0.05,pywws,2013-01-14 14:10:00,
2013-01-14 14:15:00,36.5,35.2,29.75,NE,45,0.0,0.0,95,0.04,,,0.06,pywws,2013-01-14 14:15:00,
2013-01-14 14:20:00,36.3,35.0,29.74,SW,225,0.0,0.0,95,0.06,,,0.08,pywws,2013-01-14 14:20:00,
2013-01-14 14:25:00,36.1,34.8,29.74,NW,315,0.0,0.0,95,0.06,,,0.08,pywws,2013-01-14 14:25:00,
2013-01-14 14:30:00,36.1,34.8,29.74,NW,315,0.0,0.0,95,0.07,,,0.09,pywws,2013-01-14 14:30:00,
2013-01-14 14:36:00,36.0,34.7,29.74,WSW,248,0.0,0.0,95,0.06,,,0.09,pywws,2013-01-14 14:36:00,
2013-01-14 14:41:00,35.8,34.5,29.73,NW,315,0.0,0.0,95,0.07,,,0.11,pywws,2013-01-14 14:41:00,
2013-01-14 14:46:00,35.8,34.5,29.73,SW,225,0.0,0.0,95,0.07,,,0.11,pywws,2013-01-14 14:46:00,
2013-01-14 14:51:00,35.8,34.5,29.73,NE,45,0.0,1.6,95,0.07,,,0.12,pywws,2013-01-14 14:51:00,
2013-01-14 14:56:00,35.6,34.3,29.72,SE,135,0.0,0.0,95,0.07,,,0.12,pywws,2013-01-14 14:56:00,
2013-01-14 14:58:00,35.6,34.3,29.73,NW,315,0.0,0.0,95,0.07,,,0.12,pywws,2013-01-14 14:58:00,
2013-01-14 15:00:00,35.6,34.3,29.72,North,0,0.0,0.0,95,0.08,,,0.13,pywws,2013-01-14 15:00:00,
2013-01-14 15:04:00,35.6,34.3,29.72,North,0,0.0,0.0,95,0.08,,,0.13,pywws,2013-01-14 15:04:00,
2013-01-14 15:05:00,35.6,34.3,29.73,NW,315,0.0,0.0,95,0.07,,,0.12,pywws,2013-01-14 15:05:00,
2013-01-14 15:10:00,35.6,34.3,29.72,North,0,0.0,0.0,95,0.08,,,0.13,pywws,2013-01-14 15:10:00,
2013-01-14 15:15:00,35.6,34.3,29.72,North,0,0.0,0.0,95,0.08,,,0.13,pywws,2013-01-14 15:15:00,
2013-01-14 15:20:00,35.8,34.8,29.72,NE,45,0.7,3.8,96,0.07,,,0.14,pywws,2013-01-14 15:20:00,
2013-01-14 15:25:00,35.8,34.8,29.71,SE,135,0.0,0.0,96,0.06,,,0.14,pywws,2013-01-14 15:25:00,
2013-01-14 15:30:00,36.0,34.9,29.71,North,0,0.0,3.1,96,0.05,,,0.14,pywws,2013-01-14 15:30:00,
2013-01-14 15:35:00,36.1,35.1,29.70,NW,315,0.0,0.0,96,0.05,,,0.14,pywws,2013-01-14 15:35:00,
2013-01-14 15:40:00,36.1,35.1,29.70,NW,315,0.0,0.7,96,0.05,,,0.14,pywws,2013-01-14 15:40:00,
2013-01-14 15:46:00,36.3,35.3,29.70,SE,135,0.0,0.7,96,0.04,,,0.14,pywws,2013-01-14 15:46:00,
2013-01-14 15:51:00,36.3,35.3,29.70,South,180,0.0,0.7,96,0.02,,,0.14,pywws,2013-01-14 15:51:00,
2013-01-14 15:56:00,36.3,35.3,29.69,NE,45,0.0,0.0,96,0.02,,,0.14,pywws,2013-01-14 15:56:00,
2013-01-14 16:05:00,36.5,35.5,29.69,SE,135,0.0,0.0,96,0.01,,,0.14,pywws,2013-01-14 16:05:00,
2013-01-14 16:10:00,36.5,35.5,29.69,SE,135,0.0,0.0,96,0.01,,,0.14,pywws,2013-01-14 16:10:00,
2013-01-14 16:15:00,36.5,35.5,29.69,NE,45,0.0,0.0,96,0.00,,,0.14,pywws,2013-01-14 16:15:00,
2013-01-14 16:20:00,36.3,35.3,29.69,North,0,0.0,0.0,96,0.00,,,0.14,pywws,2013-01-14 16:20:00,
2013-01-14 16:25:00,36.3,35.3,29.69,East,90,0.0,1.6,96,0.00,,,0.14,pywws,2013-01-14 16:25:00,
2013-01-14 16:30:00,36.3,35.3,29.69,NE,45,0.0,0.0,96,0.00,,,0.14,pywws,2013-01-14 16:30:00,
2013-01-14 16:36:00,36.1,35.1,29.69,NE,45,0.0,0.0,96,0.00,,,0.14,pywws,2013-01-14 16:36:00,
2013-01-14 16:41:00,36.1,35.1,29.68,SE,135,0.0,0.0,96,0.00,,,0.14,pywws,2013-01-14 16:41:00,
2013-01-14 16:46:00,36.1,35.1,29.68,North,0,0.0,2.2,96,0.00,,,0.14,pywws,2013-01-14 16:46:00,
2013-01-14 16:51:00,36.1,35.1,29.68,NE,45,0.0,0.0,96,0.00,,,0.14,pywws,2013-01-14 16:51:00,
2013-01-14 16:56:00,36.0,34.9,29.68,NW,315,0.0,2.2,96,0.00,,,0.14,pywws,2013-01-14 16:56:00,
2013-01-14 17:05:00,36.0,34.9,29.67,NW,315,0.0,2.2,96,0.00,,,0.14,pywws,2013-01-14 17:05:00,
2013-01-14 17:10:00,36.0,34.9,29.67,NW,315,0.0,2.2,96,0.00,,,0.14,pywws,2013-01-14 17:10:00,
2013-01-14 17:15:00,35.8,34.8,29.67,NW,315,0.7,1.6,96,0.00,,,0.14,pywws,2013-01-14 17:15:00,
2013-01-14 17:20:00,35.8,35.0,29.67,North,0,0.7,3.8,97,0.00,,,0.14,pywws,2013-01-14 17:20:00,
2013-01-14 17:25:00,35.8,35.0,29.67,East,90,0.7,3.1,97,0.00,,,0.14,pywws,2013-01-14 17:25:00,
2013-01-14 17:30:00,35.6,34.8,29.67,East,90,0.0,0.0,97,0.00,,,0.14,pywws,2013-01-14 17:30:00,
2013-01-14 17:36:00,35.6,34.8,29.67,NE,45,0.0,2.2,97,0.00,,,0.14,pywws,2013-01-14 17:36:00,
2013-01-14 17:41:00,35.6,34.8,29.67,NW,315,0.0,0.7,97,0.00,,,0.14,pywws,2013-01-14 17:41:00,
2013-01-14 17:46:00,35.6,34.8,29.66,NE,45,0.0,0.7,97,0.00,,,0.14,pywws,2013-01-14 17:46:00,
2013-01-14 17:51:00,35.8,35.0,29.66,ENE,68,0.0,0.0,97,0.00,,,0.14,pywws,2013-01-14 17:51:00,
2013-01-14 17:56:00,35.8,35.0,29.66,North,0,0.0,1.6,97,0.00,,,0.14,pywws,2013-01-14 17:56:00,
2013-01-14 18:05:00,35.6,34.8,29.65,SE,135,0.0,0.7,97,0.00,,,0.14,pywws,2013-01-14 18:05:00,
2013-01-14 18:11:00,35.6,34.8,29.66,East,90,0.0,1.6,97,0.00,,,0.14,pywws,2013-01-14 18:11:00,
2013-01-14 18:16:00,35.6,34.8,29.65,NE,45,0.0,3.1,97,0.00,,,0.14,pywws,2013-01-14 18:16:00,
2013-01-14 18:21:00,36.1,35.6,29.66,SSW,202,1.6,3.8,98,0.00,,,0.14,pywws,2013-01-14 18:21:00,
2013-01-14 18:26:00,36.7,35.9,29.65,West,270,2.2,5.4,97,0.00,,,0.14,pywws,2013-01-14 18:26:00,
2013-01-14 18:31:00,37.0,36.0,29.65,South,180,2.2,3.8,96,0.00,,,0.14,pywws,2013-01-14 18:31:00,
2013-01-14 18:36:00,37.2,35.9,29.65,WNW,292,2.2,3.8,95,0.00,,,0.14,pywws,2013-01-14 18:36:00,
2013-01-14 18:42:00,37.4,35.8,29.65,SE,135,0.0,2.2,94,0.00,,,0.14,pywws,2013-01-14 18:42:00,
2013-01-14 18:47:00,37.4,35.8,29.65,West,270,2.2,6.0,94,0.00,,,0.14,pywws,2013-01-14 18:47:00,
2013-01-14 18:52:00,37.8,35.9,29.65,NNW,338,3.1,6.9,93,0.00,,,0.14,pywws,2013-01-14 18:52:00,
2013-01-14 18:57:00,37.9,35.8,29.65,NW,315,2.2,4.5,92,0.00,,,0.14,pywws,2013-01-14 18:57:00,
2013-01-14 18:58:00,37.9,35.8,29.65,NW,315,2.2,4.5,92,0.00,,,0.14,pywws,2013-01-14 18:58:00,
2013-01-14 19:01:00,37.9,35.6,29.65,NNW,338,0.7,3.1,91,0.00,,,0.14,pywws,2013-01-14 19:01:00,
2013-01-14 19:05:00,37.9,35.8,29.65,NW,315,2.2,4.5,92,0.00,,,0.14,pywws,2013-01-14 19:05:00,
2013-01-14 19:10:00,37.9,35.6,29.65,NNW,338,0.7,3.1,91,0.00,,,0.14,pywws,2013-01-14 19:10:00,
2013-01-14 19:15:00,37.9,35.6,29.65,South,180,3.1,6.0,91,0.00,,,0.14,pywws,2013-01-14 19:15:00,
2013-01-14 19:20:00,37.9,35.6,29.65,SSW,202,0.7,4.5,91,0.00,,,0.14,pywws,2013-01-14 19:20:00,
2013-01-14 19:26:00,37.8,35.4,29.65,South,180,2.2,6.0,91,0.00,,,0.14,pywws,2013-01-14 19:26:00,
2013-01-14 19:31:00,37.8,35.4,29.65,SW,225,2.2,7.6,91,0.00,,,0.14,pywws,2013-01-14 19:31:00,
2013-01-14 19:36:00,37.8,35.4,29.65,NW,315,2.2,4.5,91,0.00,,,0.14,pywws,2013-01-14 19:36:00,
2013-01-14 19:42:00,37.8,35.4,29.65,NW,315,2.2,3.8,91,0.00,,,0.14,pywws,2013-01-14 19:42:00,
2013-01-14 19:47:00,37.8,35.4,29.65,SW,225,1.6,4.5,91,0.00,,,0.14,pywws,2013-01-14 19:47:00,
2013-01-14 19:52:00,37.6,35.2,29.65,NNW,338,0.7,3.1,91,0.00,,,0.14,pywws,2013-01-14 19:52:00,
2013-01-14 19:57:00,37.4,35.0,29.64,North,0,0.7,4.5,91,0.00,,,0.14,pywws,2013-01-14 19:57:00,
2013-01-14 20:05:00,37.4,35.3,29.64,SW,225,3.1,5.4,92,0.00,,,0.14,pywws,2013-01-14 20:05:00,
2013-01-14 20:10:00,37.2,35.1,29.64,South,180,3.1,5.4,92,0.00,,,0.14,pywws,2013-01-14 20:10:00,
2013-01-14 20:15:00,37.2,35.1,29.64,SW,225,3.8,7.6,92,0.00,,,0.14,pywws,2013-01-14 20:15:00,
2013-01-14 20:20:00,37.2,35.1,29.64,SW,225,3.8,7.6,92,0.00,,,0.14,pywws,2013-01-14 20:20:00,
2013-01-14 20:25:00,37.2,35.1,29.64,NE,45,0.7,2.2,92,0.01,,,0.15,pywws,2013-01-14 20:25:00,
2013-01-14 20:30:00,37.0,35.2,29.64,NW,315,0.7,2.2,93,0.01,,,0.15,pywws,2013-01-14 20:30:00,
2013-01-14 20:35:00,37.0,35.2,29.64,SW,225,2.2,4.5,93,0.01,,,0.15,pywws,2013-01-14 20:35:00,
2013-01-14 20:41:00,36.9,35.3,29.64,WSW,248,2.2,6.0,94,0.01,,,0.15,pywws,2013-01-14 20:41:00,
2013-01-14 20:46:00,37.0,35.2,29.64,NW,315,1.6,3.8,93,0.01,,,0.15,pywws,2013-01-14 20:46:00,
2013-01-14 20:51:00,37.0,35.2,29.64,NNW,338,0.7,2.2,93,0.01,,,0.15,pywws,2013-01-14 20:51:00,
2013-01-14 20:56:00,37.0,35.2,29.64,NW,315,0.7,2.2,93,0.01,,,0.15,pywws,2013-01-14 20:56:00,
2013-01-14 21:05:00,36.7,34.9,29.64,North,0,0.0,2.2,93,0.01,,,0.15,pywws,2013-01-14 21:05:00,
2013-01-14 21:10:00,36.5,34.7,29.64,NW,315,0.7,2.2,93,0.01,,,0.15,pywws,2013-01-14 21:10:00,
2013-01-14 21:15:00,36.5,34.7,29.64,NW,315,0.0,1.6,93,0.01,,,0.15,pywws,2013-01-14 21:15:00,
2013-01-14 21:20:00,36.5,34.7,29.64,WNW,292,0.0,1.6,93,0.00,,,0.15,pywws,2013-01-14 21:20:00,
2013-01-14 21:26:00,36.5,34.7,29.64,South,180,0.0,2.2,93,0.00,,,0.15,pywws,2013-01-14 21:26:00,
2013-01-14 21:31:00,36.5,34.7,29.64,North,0,0.7,3.1,93,0.00,,,0.15,pywws,2013-01-14 21:31:00,
2013-01-14 21:36:00,36.5,34.4,29.64,SE,135,1.6,3.8,92,0.00,,,0.15,pywws,2013-01-14 21:36:00,
2013-01-14 21:41:00,36.5,34.4,29.63,NW,315,2.2,5.4,92,0.00,,,0.15,pywws,2013-01-14 21:41:00,
2013-01-14 21:46:00,36.5,34.1,29.63,West,270,4.5,9.8,91,0.00,,,0.15,pywws,2013-01-14 21:46:00,
2013-01-14 21:51:00,36.3,33.9,29.64,West,270,1.6,3.8,91,0.00,,,0.15,pywws,2013-01-14 21:51:00,
2013-01-14 21:57:00,36.1,33.8,29.64,SW,225,0.7,2.2,91,0.00,,,0.15,pywws,2013-01-14 21:57:00,
2013-01-14 22:05:00,36.0,33.6,29.64,NNW,338,0.7,2.2,91,0.00,,,0.15,pywws,2013-01-14 22:05:00,
2013-01-14 22:10:00,36.0,33.6,29.64,South,180,2.2,4.5,91,0.00,,,0.15,pywws,2013-01-14 22:10:00,
2013-01-14 22:15:00,36.0,33.3,29.64,SW,225,0.7,3.1,90,0.00,,,0.15,pywws,2013-01-14 22:15:00,
2013-01-14 22:20:00,36.0,33.3,29.63,West,270,1.6,7.6,90,0.00,,,0.15,pywws,2013-01-14 22:20:00,
2013-01-14 22:25:00,35.8,33.1,29.64,WSW,248,2.2,6.0,90,0.00,,,0.15,pywws,2013-01-14 22:25:00,
2013-01-14 22:30:00,35.8,33.1,29.64,NW,315,2.2,6.0,90,0.00,,,0.15,pywws,2013-01-14 22:30:00,
2013-01-14 22:35:00,35.6,33.0,29.63,WSW,248,3.1,8.3,90,0.00,,,0.15,pywws,2013-01-14 22:35:00,
2013-01-14 22:41:00,35.6,33.0,29.63,NW,315,1.6,3.8,90,0.00,,,0.15,pywws,2013-01-14 22:41:00,
2013-01-14 22:46:00,35.4,32.8,29.63,SE,135,0.0,2.2,90,0.00,,,0.15,pywws,2013-01-14 22:46:00,
2013-01-14 22:51:00,35.2,32.6,29.63,SW,225,1.6,4.5,90,0.00,,,0.15,pywws,2013-01-14 22:51:00,
2013-01-14 22:57:00,35.2,32.6,29.63,SE,135,0.0,0.7,90,0.00,,,0.15,pywws,2013-01-14 22:57:00,
2013-01-14 22:58:00,35.2,32.6,29.63,SE,135,0.0,0.7,90,0.00,,,0.15,pywws,2013-01-14 22:58:00,
2013-01-14 23:05:00,35.2,32.6,29.63,West,270,2.2,6.9,90,0.00,,,0.15,pywws,2013-01-14 23:05:00,
2013-01-14 23:10:00,35.2,32.6,29.63,West,270,2.2,6.9,90,0.00,,,0.15,pywws,2013-01-14 23:10:00,
2013-01-14 23:15:00,35.2,32.6,29.63,South,180,1.6,3.8,90,0.00,,,0.15,pywws,2013-01-14 23:15:00,
2013-01-14 23:20:00,35.4,32.8,29.63,NW,315,3.1,4.5,90,0.00,,,0.15,pywws,2013-01-14 23:20:00,
2013-01-14 23:25:00,35.4,32.8,29.63,South,180,3.1,5.4,90,0.00,,,0.15,pywws,2013-01-14 23:25:00,
2013-01-14 23:30:00,35.4,32.8,29.63,SE,135,2.2,5.4,90,0.00,,,0.15,pywws,2013-01-14 23:30:00,
2013-01-14 23:35:00,35.4,32.8,29.63,SW,225,2.2,4.5,90,0.00,,,0.15,pywws,2013-01-14 23:35:00,
2013-01-14 23:41:00,35.2,32.6,29.63,West,270,2.2,6.9,90,0.00,,,0.15,pywws,2013-01-14 23:41:00,
2013-01-14 23:46:00,35.2,32.6,29.63,North,0,1.6,3.1,90,0.00,,,0.15,pywws,2013-01-14 23:46:00,
2013-01-14 23:51:00,35.2,32.6,29.63,West,270,0.7,3.8,90,0.00,,,0.15,pywws,2013-01-14 23:51:00,
2013-01-14 23:56:00,35.2,32.6,29.63,SW,225,2.2,6.0,90,0.00,,,0.15,pywws,2013-01-14 23:56:00,